sensor_id;sensor_type;location;lat;lon;timestamp;P1;durP1;ratioP1;P2;durP2;ratioP2
5742;SDS011;2896;53.500;10.020;2023-06-26T00:01:03;12.27;;;11.17;;
5742;SDS011;2896;53.500;10.020;2023-06-26T00:03:31;13.83;;;11.10;;
5742;SDS011;2896;53.500;10.020;2023-06-26T00:05:58;12.47;;;11.47;;
5742;SDS011;2896;53.500;10.020;2023-06-26T00:08:25;11.60;;;10.57;;
5742;SDS011;2896;53.500;10.020;2023-06-26T00:10:52;12.67;;;11.57;;
5742;SDS011;2896;53.500;10.020;2023-06-26T00:13:20;12.23;;;11.23;;
5742;SDS011;2896;53.500;10.020;2023-06-26T00:15:49;12.53;;;11.53;;
5742;SDS011;2896;53.500;10.020;2023-06-26T00:18:16;12.73;;;11.63;;
5742;SDS011;2896;53.500;10.020;2023-06-26T00:20:43;12.50;;;11.30;;
5742;SDS011;2896;53.500;10.020;2023-06-26T00:23:10;11.77;;;10.60;;
5742;SDS011;2896;53.500;10.020;2023-06-26T00:25:38;12.30;;;11.30;;
5742;SDS011;2896;53.500;10.020;2023-06-26T00:28:04;11.93;;;10.93;;
5742;SDS011;2896;53.500;10.020;2023-06-26T00:30:32;11.77;;;10.80;;
5742;SDS011;2896;53.500;10.020;2023-06-26T00:32:59;11.70;;;10.80;;
5742;SDS011;2896;53.500;10.020;2023-06-26T00:35:26;11.87;;;10.87;;
5742;SDS011;2896;53.500;10.020;2023-06-26T00:37:52;13.47;;;12.27;;
5742;SDS011;2896;53.500;10.020;2023-06-26T00:40:19;13.07;;;11.90;;
5742;SDS011;2896;53.500;10.020;2023-06-26T00:42:46;12.20;;;11.20;;
5742;SDS011;2896;53.500;10.020;2023-06-26T00:45:12;13.20;;;12.10;;
5742;SDS011;2896;53.500;10.020;2023-06-26T00:47:40;12.70;;;11.70;;
5742;SDS011;2896;53.500;10.020;2023-06-26T00:50:07;12.00;;;11.00;;
5742;SDS011;2896;53.500;10.020;2023-06-26T00:52:34;12.23;;;11.23;;
5742;SDS011;2896;53.500;10.020;2023-06-26T00:55:01;13.43;;;12.30;;
5742;SDS011;2896;53.500;10.020;2023-06-26T00:57:29;16.60;;;12.73;;
5742;SDS011;2896;53.500;10.020;2023-06-26T00:59:56;13.97;;;12.67;;
5742;SDS011;2896;53.500;10.020;2023-06-26T01:02:23;12.73;;;11.70;;
5742;SDS011;2896;53.500;10.020;2023-06-26T01:04:51;13.73;;;12.53;;
5742;SDS011;2896;53.500;10.020;2023-06-26T01:07:19;13.97;;;12.67;;
5742;SDS011;2896;53.500;10.020;2023-06-26T01:09:47;14.80;;;13.50;;
5742;SDS011;2896;53.500;10.020;2023-06-26T01:12:14;14.27;;;12.97;;
5742;SDS011;2896;53.500;10.020;2023-06-26T01:14:42;13.60;;;12.50;;
5742;SDS011;2896;53.500;10.020;2023-06-26T01:17:09;14.10;;;12.90;;
5742;SDS011;2896;53.500;10.020;2023-06-26T01:19:38;14.27;;;12.97;;
5742;SDS011;2896;53.500;10.020;2023-06-26T01:22:10;13.47;;;12.07;;
5742;SDS011;2896;53.500;10.020;2023-06-26T01:24:44;13.10;;;12.00;;
5742;SDS011;2896;53.500;10.020;2023-06-26T01:27:24;13.80;;;12.60;;
5742;SDS011;2896;53.500;10.020;2023-06-26T01:29:51;14.57;;;13.27;;
5742;SDS011;2896;53.500;10.020;2023-06-26T01:32:19;13.37;;;12.20;;
5742;SDS011;2896;53.500;10.020;2023-06-26T01:34:47;14.83;;;13.37;;
5742;SDS011;2896;53.500;10.020;2023-06-26T01:37:13;13.80;;;12.60;;
5742;SDS011;2896;53.500;10.020;2023-06-26T01:39:40;15.90;;;14.40;;
5742;SDS011;2896;53.500;10.020;2023-06-26T01:42:07;17.17;;;15.67;;
5742;SDS011;2896;53.500;10.020;2023-06-26T01:44:35;16.63;;;15.13;;
5742;SDS011;2896;53.500;10.020;2023-06-26T01:47:07;16.47;;;15.07;;
5742;SDS011;2896;53.500;10.020;2023-06-26T01:49:41;15.50;;;13.90;;
5742;SDS011;2896;53.500;10.020;2023-06-26T01:52:14;17.97;;;16.17;;
5742;SDS011;2896;53.500;10.020;2023-06-26T01:54:49;16.80;;;15.20;;
5742;SDS011;2896;53.500;10.020;2023-06-26T01:57:23;16.20;;;14.70;;
5742;SDS011;2896;53.500;10.020;2023-06-26T01:59:54;14.73;;;13.43;;
5742;SDS011;2896;53.500;10.020;2023-06-26T02:02:22;14.43;;;13.20;;
5742;SDS011;2896;53.500;10.020;2023-06-26T02:04:49;16.17;;;14.67;;
5742;SDS011;2896;53.500;10.020;2023-06-26T02:07:16;15.23;;;13.93;;
5742;SDS011;2896;53.500;10.020;2023-06-26T02:09:43;15.80;;;14.40;;
5742;SDS011;2896;53.500;10.020;2023-06-26T02:12:10;14.40;;;13.20;;
5742;SDS011;2896;53.500;10.020;2023-06-26T02:14:36;14.97;;;13.47;;
5742;SDS011;2896;53.500;10.020;2023-06-26T02:17:04;18.27;;;14.67;;
5742;SDS011;2896;53.500;10.020;2023-06-26T02:19:31;17.77;;;16.13;;
5742;SDS011;2896;53.500;10.020;2023-06-26T02:21:58;17.03;;;15.43;;
5742;SDS011;2896;53.500;10.020;2023-06-26T02:24:25;15.80;;;14.40;;
5742;SDS011;2896;53.500;10.020;2023-06-26T02:26:54;15.33;;;14.10;;
5742;SDS011;2896;53.500;10.020;2023-06-26T02:29:21;23.80;;;16.97;;
5742;SDS011;2896;53.500;10.020;2023-06-26T02:31:48;17.23;;;15.43;;
5742;SDS011;2896;53.500;10.020;2023-06-26T02:34:16;18.43;;;16.60;;
5742;SDS011;2896;53.500;10.020;2023-06-26T02:36:43;18.17;;;16.43;;
5742;SDS011;2896;53.500;10.020;2023-06-26T02:39:10;17.67;;;15.97;;
5742;SDS011;2896;53.500;10.020;2023-06-26T02:41:36;16.83;;;15.43;;
5742;SDS011;2896;53.500;10.020;2023-06-26T02:44:03;17.40;;;15.70;;
5742;SDS011;2896;53.500;10.020;2023-06-26T02:46:30;16.77;;;15.13;;
5742;SDS011;2896;53.500;10.020;2023-06-26T02:48:56;17.07;;;15.57;;
5742;SDS011;2896;53.500;10.020;2023-06-26T02:51:24;19.13;;;17.33;;
5742;SDS011;2896;53.500;10.020;2023-06-26T02:53:51;22.27;;;15.17;;
5742;SDS011;2896;53.500;10.020;2023-06-26T02:56:17;15.77;;;14.17;;
5742;SDS011;2896;53.500;10.020;2023-06-26T02:58:44;17.03;;;14.87;;
5742;SDS011;2896;53.500;10.020;2023-06-26T03:01:11;15.97;;;14.50;;
5742;SDS011;2896;53.500;10.020;2023-06-26T03:03:37;16.90;;;15.20;;
5742;SDS011;2896;53.500;10.020;2023-06-26T03:06:06;16.20;;;14.70;;
5742;SDS011;2896;53.500;10.020;2023-06-26T03:08:36;16.93;;;15.33;;
5742;SDS011;2896;53.500;10.020;2023-06-26T03:11:03;16.97;;;15.27;;
5742;SDS011;2896;53.500;10.020;2023-06-26T03:13:30;16.23;;;14.73;;
5742;SDS011;2896;53.500;10.020;2023-06-26T03:15:56;16.93;;;15.20;;
5742;SDS011;2896;53.500;10.020;2023-06-26T03:18:23;16.43;;;14.83;;
5742;SDS011;2896;53.500;10.020;2023-06-26T03:20:50;23.00;;;17.23;;
5742;SDS011;2896;53.500;10.020;2023-06-26T03:23:19;20.03;;;17.93;;
5742;SDS011;2896;53.500;10.020;2023-06-26T03:25:47;17.83;;;16.23;;
5742;SDS011;2896;53.500;10.020;2023-06-26T03:28:13;18.93;;;17.03;;
5742;SDS011;2896;53.500;10.020;2023-06-26T03:30:40;21.87;;;15.00;;
5742;SDS011;2896;53.500;10.020;2023-06-26T03:33:07;19.10;;;17.30;;
5742;SDS011;2896;53.500;10.020;2023-06-26T03:35:33;18.07;;;16.27;;
5742;SDS011;2896;53.500;10.020;2023-06-26T03:38:00;15.90;;;14.40;;
5742;SDS011;2896;53.500;10.020;2023-06-26T03:40:27;15.90;;;14.30;;
5742;SDS011;2896;53.500;10.020;2023-06-26T03:42:55;18.70;;;15.63;;
5742;SDS011;2896;53.500;10.020;2023-06-26T03:45:22;18.10;;;16.43;;
5742;SDS011;2896;53.500;10.020;2023-06-26T03:47:48;16.73;;;15.13;;
5742;SDS011;2896;53.500;10.020;2023-06-26T03:50:15;17.63;;;15.67;;
5742;SDS011;2896;53.500;10.020;2023-06-26T03:52:42;17.83;;;16.03;;
5742;SDS011;2896;53.500;10.020;2023-06-26T03:55:08;17.70;;;15.87;;
5742;SDS011;2896;53.500;10.020;2023-06-26T03:57:35;16.30;;;14.67;;
5742;SDS011;2896;53.500;10.020;2023-06-26T04:00:03;17.93;;;16.23;;
5742;SDS011;2896;53.500;10.020;2023-06-26T04:02:33;17.47;;;15.77;;
5742;SDS011;2896;53.500;10.020;2023-06-26T04:05:00;23.73;;;16.77;;
5742;SDS011;2896;53.500;10.020;2023-06-26T04:07:27;19.23;;;16.10;;
5742;SDS011;2896;53.500;10.020;2023-06-26T04:09:53;16.27;;;14.57;;
5742;SDS011;2896;53.500;10.020;2023-06-26T04:12:20;17.33;;;15.73;;
5742;SDS011;2896;53.500;10.020;2023-06-26T04:14:47;18.03;;;15.60;;
5742;SDS011;2896;53.500;10.020;2023-06-26T04:17:14;16.23;;;14.63;;
5742;SDS011;2896;53.500;10.020;2023-06-26T04:19:41;20.00;;;16.23;;
5742;SDS011;2896;53.500;10.020;2023-06-26T04:22:08;17.53;;;15.93;;
5742;SDS011;2896;53.500;10.020;2023-06-26T04:24:34;19.63;;;15.30;;
5742;SDS011;2896;53.500;10.020;2023-06-26T04:27:01;16.27;;;14.63;;
5742;SDS011;2896;53.500;10.020;2023-06-26T04:29:28;20.20;;;14.50;;
5742;SDS011;2896;53.500;10.020;2023-06-26T04:31:55;16.07;;;14.37;;
5742;SDS011;2896;53.500;10.020;2023-06-26T04:34:24;16.93;;;15.03;;
5742;SDS011;2896;53.500;10.020;2023-06-26T04:36:50;19.40;;;14.53;;
5742;SDS011;2896;53.500;10.020;2023-06-26T04:39:17;17.67;;;14.37;;
5742;SDS011;2896;53.500;10.020;2023-06-26T04:41:44;14.40;;;13.10;;
5742;SDS011;2896;53.500;10.020;2023-06-26T04:44:11;16.97;;;14.70;;
5742;SDS011;2896;53.500;10.020;2023-06-26T04:46:37;17.33;;;15.60;;
5742;SDS011;2896;53.500;10.020;2023-06-26T04:49:06;16.00;;;14.50;;
5742;SDS011;2896;53.500;10.020;2023-06-26T04:51:34;15.83;;;14.10;;
5742;SDS011;2896;53.500;10.020;2023-06-26T04:54:05;17.60;;;14.40;;
5742;SDS011;2896;53.500;10.020;2023-06-26T04:56:32;14.77;;;13.37;;
5742;SDS011;2896;53.500;10.020;2023-06-26T04:58:58;15.37;;;13.93;;
5742;SDS011;2896;53.500;10.020;2023-06-26T05:01:25;16.27;;;14.70;;
5742;SDS011;2896;53.500;10.020;2023-06-26T05:03:54;16.93;;;14.67;;
5742;SDS011;2896;53.500;10.020;2023-06-26T05:06:21;14.00;;;12.70;;
5742;SDS011;2896;53.500;10.020;2023-06-26T05:08:49;14.90;;;13.50;;
5742;SDS011;2896;53.500;10.020;2023-06-26T05:11:15;14.03;;;12.63;;
5742;SDS011;2896;53.500;10.020;2023-06-26T05:13:42;14.13;;;12.70;;
5742;SDS011;2896;53.500;10.020;2023-06-26T05:16:09;14.50;;;13.30;;
5742;SDS011;2896;53.500;10.020;2023-06-26T05:18:36;15.27;;;13.70;;
5742;SDS011;2896;53.500;10.020;2023-06-26T05:21:03;13.00;;;11.80;;
5742;SDS011;2896;53.500;10.020;2023-06-26T05:23:31;19.40;;;14.40;;
5742;SDS011;2896;53.500;10.020;2023-06-26T05:26:00;13.77;;;12.47;;
5742;SDS011;2896;53.500;10.020;2023-06-26T05:28:28;13.80;;;12.40;;
5742;SDS011;2896;53.500;10.020;2023-06-26T05:30:56;17.47;;;12.97;;
5742;SDS011;2896;53.500;10.020;2023-06-26T05:33:24;13.37;;;12.03;;
5742;SDS011;2896;53.500;10.020;2023-06-26T05:35:52;14.63;;;12.47;;
5742;SDS011;2896;53.500;10.020;2023-06-26T05:38:19;16.00;;;11.57;;
5742;SDS011;2896;53.500;10.020;2023-06-26T05:40:46;12.83;;;11.60;;
5742;SDS011;2896;53.500;10.020;2023-06-26T05:43:15;13.13;;;11.80;;
5742;SDS011;2896;53.500;10.020;2023-06-26T05:45:45;13.77;;;12.40;;
5742;SDS011;2896;53.500;10.020;2023-06-26T05:48:12;12.60;;;11.30;;
5742;SDS011;2896;53.500;10.020;2023-06-26T05:50:39;14.50;;;12.33;;
5742;SDS011;2896;53.500;10.020;2023-06-26T05:53:07;19.87;;;12.33;;
5742;SDS011;2896;53.500;10.020;2023-06-26T05:55:34;15.90;;;11.53;;
5742;SDS011;2896;53.500;10.020;2023-06-26T05:58:01;11.07;;;10.17;;
5742;SDS011;2896;53.500;10.020;2023-06-26T06:00:30;11.57;;;10.57;;
5742;SDS011;2896;53.500;10.020;2023-06-26T06:02:57;10.50;;;9.60;;
5742;SDS011;2896;53.500;10.020;2023-06-26T06:05:24;14.07;;;10.83;;
5742;SDS011;2896;53.500;10.020;2023-06-26T06:07:50;15.67;;;11.00;;
5742;SDS011;2896;53.500;10.020;2023-06-26T06:10:17;11.77;;;10.67;;
5742;SDS011;2896;53.500;10.020;2023-06-26T06:12:43;13.17;;;11.10;;
5742;SDS011;2896;53.500;10.020;2023-06-26T06:15:10;10.43;;;9.53;;
5742;SDS011;2896;53.500;10.020;2023-06-26T06:17:38;11.17;;;9.87;;
5742;SDS011;2896;53.500;10.020;2023-06-26T06:20:05;13.63;;;10.50;;
5742;SDS011;2896;53.500;10.020;2023-06-26T06:22:31;11.20;;;10.20;;
5742;SDS011;2896;53.500;10.020;2023-06-26T06:24:58;11.43;;;10.33;;
5742;SDS011;2896;53.500;10.020;2023-06-26T06:27:26;12.00;;;10.80;;
5742;SDS011;2896;53.500;10.020;2023-06-26T06:29:53;13.80;;;10.40;;
5742;SDS011;2896;53.500;10.020;2023-06-26T06:32:20;10.77;;;9.77;;
5742;SDS011;2896;53.500;10.020;2023-06-26T06:34:48;13.90;;;9.60;;
5742;SDS011;2896;53.500;10.020;2023-06-26T06:37:14;9.90;;;9.10;;
5742;SDS011;2896;53.500;10.020;2023-06-26T06:39:41;10.23;;;9.37;;
5742;SDS011;2896;53.500;10.020;2023-06-26T06:42:08;10.27;;;9.30;;
5742;SDS011;2896;53.500;10.020;2023-06-26T06:44:34;12.33;;;9.40;;
5742;SDS011;2896;53.500;10.020;2023-06-26T06:47:01;12.57;;;10.60;;
5742;SDS011;2896;53.500;10.020;2023-06-26T06:49:28;10.03;;;9.13;;
5742;SDS011;2896;53.500;10.020;2023-06-26T06:51:56;10.10;;;9.10;;
5742;SDS011;2896;53.500;10.020;2023-06-26T06:54:25;10.60;;;9.70;;
5742;SDS011;2896;53.500;10.020;2023-06-26T06:56:52;14.23;;;9.47;;
5742;SDS011;2896;53.500;10.020;2023-06-26T06:59:19;12.53;;;9.10;;
5742;SDS011;2896;53.500;10.020;2023-06-26T07:01:45;10.00;;;8.70;;
5742;SDS011;2896;53.500;10.020;2023-06-26T07:04:12;8.70;;;7.90;;
5742;SDS011;2896;53.500;10.020;2023-06-26T07:06:38;10.93;;;8.90;;
5742;SDS011;2896;53.500;10.020;2023-06-26T07:09:06;10.37;;;9.20;;
5742;SDS011;2896;53.500;10.020;2023-06-26T07:11:33;9.33;;;8.53;;
5742;SDS011;2896;53.500;10.020;2023-06-26T07:13:59;10.53;;;9.53;;
5742;SDS011;2896;53.500;10.020;2023-06-26T07:16:26;9.37;;;8.57;;
5742;SDS011;2896;53.500;10.020;2023-06-26T07:18:53;14.80;;;8.73;;
5742;SDS011;2896;53.500;10.020;2023-06-26T07:21:20;8.87;;;7.97;;
5742;SDS011;2896;53.500;10.020;2023-06-26T07:23:47;14.30;;;9.50;;
5742;SDS011;2896;53.500;10.020;2023-06-26T07:26:15;9.03;;;8.33;;
5742;SDS011;2896;53.500;10.020;2023-06-26T07:28:41;8.60;;;7.90;;
5742;SDS011;2896;53.500;10.020;2023-06-26T07:31:08;9.50;;;8.27;;
5742;SDS011;2896;53.500;10.020;2023-06-26T07:33:35;8.33;;;7.73;;
5742;SDS011;2896;53.500;10.020;2023-06-26T07:36:01;9.43;;;8.67;;
5742;SDS011;2896;53.500;10.020;2023-06-26T07:38:28;10.00;;;8.97;;
5742;SDS011;2896;53.500;10.020;2023-06-26T07:40:55;9.53;;;7.83;;
5742;SDS011;2896;53.500;10.020;2023-06-26T07:43:23;8.97;;;8.07;;
5742;SDS011;2896;53.500;10.020;2023-06-26T07:45:49;8.33;;;7.50;;
5742;SDS011;2896;53.500;10.020;2023-06-26T07:48:18;9.23;;;8.03;;
5742;SDS011;2896;53.500;10.020;2023-06-26T07:50:44;10.93;;;7.47;;
5742;SDS011;2896;53.500;10.020;2023-06-26T07:53:11;8.70;;;8.00;;
5742;SDS011;2896;53.500;10.020;2023-06-26T07:55:38;9.73;;;7.80;;
5742;SDS011;2896;53.500;10.020;2023-06-26T07:58:04;8.90;;;8.00;;
5742;SDS011;2896;53.500;10.020;2023-06-26T08:00:32;9.07;;;8.17;;
5742;SDS011;2896;53.500;10.020;2023-06-26T08:02:59;8.23;;;7.50;;
5742;SDS011;2896;53.500;10.020;2023-06-26T08:05:25;11.40;;;8.03;;
5742;SDS011;2896;53.500;10.020;2023-06-26T08:07:52;25.20;;;8.17;;
5742;SDS011;2896;53.500;10.020;2023-06-26T08:10:19;10.00;;;8.57;;
5742;SDS011;2896;53.500;10.020;2023-06-26T08:12:46;14.27;;;7.80;;
5742;SDS011;2896;53.500;10.020;2023-06-26T08:15:13;12.40;;;7.93;;
5742;SDS011;2896;53.500;10.020;2023-06-26T08:17:41;11.13;;;8.70;;
5742;SDS011;2896;53.500;10.020;2023-06-26T08:20:09;8.43;;;7.67;;
5742;SDS011;2896;53.500;10.020;2023-06-26T08:22:36;10.37;;;8.03;;
5742;SDS011;2896;53.500;10.020;2023-06-26T08:25:03;18.67;;;8.20;;
5742;SDS011;2896;53.500;10.020;2023-06-26T08:27:31;10.60;;;7.87;;
5742;SDS011;2896;53.500;10.020;2023-06-26T08:29:58;10.60;;;7.03;;
5742;SDS011;2896;53.500;10.020;2023-06-26T08:32:24;7.40;;;6.90;;
5742;SDS011;2896;53.500;10.020;2023-06-26T08:34:52;8.07;;;7.17;;
5742;SDS011;2896;53.500;10.020;2023-06-26T08:37:19;12.03;;;7.80;;
5742;SDS011;2896;53.500;10.020;2023-06-26T08:39:45;11.63;;;7.77;;
5742;SDS011;2896;53.500;10.020;2023-06-26T08:42:12;10.03;;;7.30;;
5742;SDS011;2896;53.500;10.020;2023-06-26T08:44:39;10.33;;;7.77;;
5742;SDS011;2896;53.500;10.020;2023-06-26T08:47:05;7.70;;;7.10;;
5742;SDS011;2896;53.500;10.020;2023-06-26T08:49:34;9.10;;;8.20;;
5742;SDS011;2896;53.500;10.020;2023-06-26T08:52:10;7.87;;;7.27;;
5742;SDS011;2896;53.500;10.020;2023-06-26T08:54:42;8.70;;;7.93;;
5742;SDS011;2896;53.500;10.020;2023-06-26T08:57:12;13.60;;;8.17;;
5742;SDS011;2896;53.500;10.020;2023-06-26T08:59:44;10.00;;;7.50;;
5742;SDS011;2896;53.500;10.020;2023-06-26T09:02:12;10.30;;;7.80;;
5742;SDS011;2896;53.500;10.020;2023-06-26T09:04:38;21.53;;;8.70;;
5742;SDS011;2896;53.500;10.020;2023-06-26T09:07:06;9.90;;;8.60;;
5742;SDS011;2896;53.500;10.020;2023-06-26T09:09:34;9.57;;;8.57;;
5742;SDS011;2896;53.500;10.020;2023-06-26T09:12:01;10.70;;;9.07;;
5742;SDS011;2896;53.500;10.020;2023-06-26T09:14:28;12.50;;;9.97;;
5742;SDS011;2896;53.500;10.020;2023-06-26T09:16:55;23.07;;;8.80;;
5742;SDS011;2896;53.500;10.020;2023-06-26T09:19:22;15.27;;;9.20;;
5742;SDS011;2896;53.500;10.020;2023-06-26T09:21:49;16.57;;;9.93;;
5742;SDS011;2896;53.500;10.020;2023-06-26T09:24:16;13.23;;;10.30;;
5742;SDS011;2896;53.500;10.020;2023-06-26T09:26:45;11.53;;;9.93;;
5742;SDS011;2896;53.500;10.020;2023-06-26T09:29:13;12.23;;;10.17;;
5742;SDS011;2896;53.500;10.020;2023-06-26T09:31:40;13.10;;;10.93;;
5742;SDS011;2896;53.500;10.020;2023-06-26T09:34:08;24.13;;;11.20;;
5742;SDS011;2896;53.500;10.020;2023-06-26T09:36:34;12.90;;;10.23;;
5742;SDS011;2896;53.500;10.020;2023-06-26T09:39:01;12.67;;;10.60;;
5742;SDS011;2896;53.500;10.020;2023-06-26T09:41:29;11.77;;;10.13;;
5742;SDS011;2896;53.500;10.020;2023-06-26T09:44:00;15.10;;;9.97;;
5742;SDS011;2896;53.500;10.020;2023-06-26T09:46:28;25.23;;;10.60;;
5742;SDS011;2896;53.500;10.020;2023-06-26T09:49:02;23.10;;;10.80;;
5742;SDS011;2896;53.500;10.020;2023-06-26T09:51:30;22.90;;;10.03;;
5742;SDS011;2896;53.500;10.020;2023-06-26T09:53:57;22.33;;;12.27;;
5742;SDS011;2896;53.500;10.020;2023-06-26T09:56:24;21.57;;;10.63;;
5742;SDS011;2896;53.500;10.020;2023-06-26T09:58:51;22.30;;;9.70;;
5742;SDS011;2896;53.500;10.020;2023-06-26T10:01:19;18.43;;;10.27;;
5742;SDS011;2896;53.500;10.020;2023-06-26T10:03:46;18.60;;;10.53;;
5742;SDS011;2896;53.500;10.020;2023-06-26T10:06:13;18.53;;;10.97;;
5742;SDS011;2896;53.500;10.020;2023-06-26T10:08:40;21.93;;;12.10;;
5742;SDS011;2896;53.500;10.020;2023-06-26T10:11:08;137.93;;;16.50;;
5742;SDS011;2896;53.500;10.020;2023-06-26T10:13:42;27.53;;;13.67;;
5742;SDS011;2896;53.500;10.020;2023-06-26T10:16:11;20.70;;;13.57;;
5742;SDS011;2896;53.500;10.020;2023-06-26T10:18:41;25.13;;;15.13;;
5742;SDS011;2896;53.500;10.020;2023-06-26T10:21:09;19.83;;;13.90;;
5742;SDS011;2896;53.500;10.020;2023-06-26T10:23:38;35.60;;;13.43;;
5742;SDS011;2896;53.500;10.020;2023-06-26T10:26:06;26.73;;;15.20;;
5742;SDS011;2896;53.500;10.020;2023-06-26T10:28:34;38.70;;;15.70;;
5742;SDS011;2896;53.500;10.020;2023-06-26T10:31:03;20.23;;;15.13;;
5742;SDS011;2896;53.500;10.020;2023-06-26T10:33:31;34.33;;;15.20;;
5742;SDS011;2896;53.500;10.020;2023-06-26T10:36:13;21.43;;;13.03;;
5742;SDS011;2896;53.500;10.020;2023-06-26T10:38:50;23.07;;;14.07;;
5742;SDS011;2896;53.500;10.020;2023-06-26T10:41:21;17.07;;;13.50;;
5742;SDS011;2896;53.500;10.020;2023-06-26T10:43:49;20.80;;;15.40;;
5742;SDS011;2896;53.500;10.020;2023-06-26T10:46:17;22.67;;;14.37;;
5742;SDS011;2896;53.500;10.020;2023-06-26T10:51:39;14.30;;;9.90;;
5742;SDS011;2896;53.500;10.020;2023-06-26T10:54:13;13.33;;;9.97;;
5742;SDS011;2896;53.500;10.020;2023-06-26T10:56:41;9.73;;;8.77;;
5742;SDS011;2896;53.500;10.020;2023-06-26T10:59:15;10.50;;;9.37;;
5742;SDS011;2896;53.500;10.020;2023-06-26T11:01:44;9.00;;;8.23;;
5742;SDS011;2896;53.500;10.020;2023-06-26T11:04:12;9.80;;;9.00;;
5742;SDS011;2896;53.500;10.020;2023-06-26T11:06:44;9.73;;;8.37;;
5742;SDS011;2896;53.500;10.020;2023-06-26T11:09:14;14.00;;;9.67;;
5742;SDS011;2896;53.500;10.020;2023-06-26T11:11:58;9.70;;;8.63;;
5742;SDS011;2896;53.500;10.020;2023-06-26T11:14:29;13.43;;;10.13;;
5742;SDS011;2896;53.500;10.020;2023-06-26T11:16:57;14.87;;;10.77;;
5742;SDS011;2896;53.500;10.020;2023-06-26T11:19:25;14.67;;;9.30;;
5742;SDS011;2896;53.500;10.020;2023-06-26T11:21:59;15.47;;;10.87;;
5742;SDS011;2896;53.500;10.020;2023-06-26T11:24:28;15.97;;;9.50;;
5742;SDS011;2896;53.500;10.020;2023-06-26T11:26:59;17.90;;;8.30;;
5742;SDS011;2896;53.500;10.020;2023-06-26T11:29:27;11.43;;;6.87;;
5742;SDS011;2896;53.500;10.020;2023-06-26T11:31:58;14.00;;;7.20;;
5742;SDS011;2896;53.500;10.020;2023-06-26T11:34:28;12.20;;;6.77;;
5742;SDS011;2896;53.500;10.020;2023-06-26T11:36:56;9.80;;;6.20;;
5742;SDS011;2896;53.500;10.020;2023-06-26T11:39:24;12.37;;;6.50;;
5742;SDS011;2896;53.500;10.020;2023-06-26T11:41:51;12.60;;;5.80;;
5742;SDS011;2896;53.500;10.020;2023-06-26T11:44:17;13.80;;;6.17;;
5742;SDS011;2896;53.500;10.020;2023-06-26T11:46:45;9.83;;;5.03;;
5742;SDS011;2896;53.500;10.020;2023-06-26T11:49:14;5.93;;;3.90;;
5742;SDS011;2896;53.500;10.020;2023-06-26T11:51:42;9.57;;;4.33;;
5742;SDS011;2896;53.500;10.020;2023-06-26T11:54:09;5.50;;;4.33;;
5742;SDS011;2896;53.500;10.020;2023-06-26T11:56:38;8.53;;;3.93;;
5742;SDS011;2896;53.500;10.020;2023-06-26T11:59:06;13.13;;;3.90;;
5742;SDS011;2896;53.500;10.020;2023-06-26T12:01:34;11.20;;;3.97;;
5742;SDS011;2896;53.500;10.020;2023-06-26T12:04:02;10.60;;;3.80;;
5742;SDS011;2896;53.500;10.020;2023-06-26T12:06:30;12.20;;;3.90;;
5742;SDS011;2896;53.500;10.020;2023-06-26T12:08:58;26.43;;;4.00;;
5742;SDS011;2896;53.500;10.020;2023-06-26T12:11:27;6.20;;;3.33;;
5742;SDS011;2896;53.500;10.020;2023-06-26T12:13:56;11.37;;;3.10;;
5742;SDS011;2896;53.500;10.020;2023-06-26T12:16:23;6.70;;;3.40;;
5742;SDS011;2896;53.500;10.020;2023-06-26T12:18:50;6.93;;;3.20;;
5742;SDS011;2896;53.500;10.020;2023-06-26T12:21:34;10.20;;;3.27;;
5742;SDS011;2896;53.500;10.020;2023-06-26T12:24:13;11.17;;;3.27;;
5742;SDS011;2896;53.500;10.020;2023-06-26T12:26:41;13.93;;;3.27;;
5742;SDS011;2896;53.500;10.020;2023-06-26T12:29:11;9.30;;;3.10;;
5742;SDS011;2896;53.500;10.020;2023-06-26T12:31:41;9.00;;;3.10;;
5742;SDS011;2896;53.500;10.020;2023-06-26T12:34:09;6.80;;;2.83;;
5742;SDS011;2896;53.500;10.020;2023-06-26T12:36:40;9.67;;;3.70;;
5742;SDS011;2896;53.500;10.020;2023-06-26T12:39:09;5.87;;;3.27;;
5742;SDS011;2896;53.500;10.020;2023-06-26T12:41:43;8.03;;;2.70;;
5742;SDS011;2896;53.500;10.020;2023-06-26T12:44:21;7.90;;;2.90;;
5742;SDS011;2896;53.500;10.020;2023-06-26T12:46:53;6.97;;;2.87;;
5742;SDS011;2896;53.500;10.020;2023-06-26T12:49:20;8.57;;;2.60;;
5742;SDS011;2896;53.500;10.020;2023-06-26T12:51:55;11.57;;;4.20;;
5742;SDS011;2896;53.500;10.020;2023-06-26T12:54:22;10.73;;;3.00;;
5742;SDS011;2896;53.500;10.020;2023-06-26T12:56:49;4.10;;;2.97;;
5742;SDS011;2896;53.500;10.020;2023-06-26T12:59:15;7.50;;;2.70;;
5742;SDS011;2896;53.500;10.020;2023-06-26T13:01:43;6.87;;;3.00;;
5742;SDS011;2896;53.500;10.020;2023-06-26T13:04:10;6.77;;;2.10;;
5742;SDS011;2896;53.500;10.020;2023-06-26T13:06:36;5.50;;;2.73;;
5742;SDS011;2896;53.500;10.020;2023-06-26T13:09:03;7.27;;;2.80;;
5742;SDS011;2896;53.500;10.020;2023-06-26T13:11:30;9.07;;;3.03;;
5742;SDS011;2896;53.500;10.020;2023-06-26T13:13:57;4.30;;;2.53;;
5742;SDS011;2896;53.500;10.020;2023-06-26T13:16:24;11.50;;;2.10;;
5742;SDS011;2896;53.500;10.020;2023-06-26T13:18:52;7.57;;;3.00;;
5742;SDS011;2896;53.500;10.020;2023-06-26T13:21:19;4.93;;;2.63;;
5742;SDS011;2896;53.500;10.020;2023-06-26T13:23:45;9.43;;;3.00;;
5742;SDS011;2896;53.500;10.020;2023-06-26T13:26:12;7.60;;;2.53;;
5742;SDS011;2896;53.500;10.020;2023-06-26T13:28:39;3.63;;;2.47;;
5742;SDS011;2896;53.500;10.020;2023-06-26T13:31:05;8.03;;;3.27;;
5742;SDS011;2896;53.500;10.020;2023-06-26T13:33:32;6.43;;;2.60;;
5742;SDS011;2896;53.500;10.020;2023-06-26T13:36:00;4.70;;;2.70;;
5742;SDS011;2896;53.500;10.020;2023-06-26T13:38:29;4.20;;;2.50;;
5742;SDS011;2896;53.500;10.020;2023-06-26T13:40:56;8.13;;;2.67;;
5742;SDS011;2896;53.500;10.020;2023-06-26T13:43:24;6.27;;;2.17;;
5742;SDS011;2896;53.500;10.020;2023-06-26T13:45:51;6.80;;;2.37;;
5742;SDS011;2896;53.500;10.020;2023-06-26T13:48:17;8.47;;;2.60;;
5742;SDS011;2896;53.500;10.020;2023-06-26T13:50:44;4.60;;;1.90;;
5742;SDS011;2896;53.500;10.020;2023-06-26T13:53:12;1.90;;;1.80;;
5742;SDS011;2896;53.500;10.020;2023-06-26T13:55:40;8.63;;;2.10;;
5742;SDS011;2896;53.500;10.020;2023-06-26T13:58:06;5.00;;;2.30;;
5742;SDS011;2896;53.500;10.020;2023-06-26T14:00:34;2.67;;;2.07;;
5742;SDS011;2896;53.500;10.020;2023-06-26T14:03:02;2.53;;;2.03;;
5742;SDS011;2896;53.500;10.020;2023-06-26T14:05:29;4.23;;;2.20;;
5742;SDS011;2896;53.500;10.020;2023-06-26T14:07:56;2.67;;;2.47;;
5742;SDS011;2896;53.500;10.020;2023-06-26T14:10:24;2.03;;;1.93;;
5742;SDS011;2896;53.500;10.020;2023-06-26T14:12:51;3.83;;;2.20;;
5742;SDS011;2896;53.500;10.020;2023-06-26T14:15:18;7.03;;;3.40;;
5742;SDS011;2896;53.500;10.020;2023-06-26T14:17:44;2.97;;;1.60;;
5742;SDS011;2896;53.500;10.020;2023-06-26T14:20:12;6.67;;;2.03;;
5742;SDS011;2896;53.500;10.020;2023-06-26T14:22:39;4.53;;;2.27;;
5742;SDS011;2896;53.500;10.020;2023-06-26T14:25:06;3.40;;;2.00;;
5742;SDS011;2896;53.500;10.020;2023-06-26T14:27:35;5.23;;;2.67;;
5742;SDS011;2896;53.500;10.020;2023-06-26T14:30:02;3.13;;;2.10;;
5742;SDS011;2896;53.500;10.020;2023-06-26T14:32:29;6.00;;;2.07;;
5742;SDS011;2896;53.500;10.020;2023-06-26T14:34:56;10.80;;;2.93;;
5742;SDS011;2896;53.500;10.020;2023-06-26T14:37:23;3.90;;;2.53;;
5742;SDS011;2896;53.500;10.020;2023-06-26T14:39:50;2.97;;;2.20;;
5742;SDS011;2896;53.500;10.020;2023-06-26T14:42:16;2.73;;;2.23;;
5742;SDS011;2896;53.500;10.020;2023-06-26T14:44:44;7.57;;;3.00;;
5742;SDS011;2896;53.500;10.020;2023-06-26T14:47:11;7.60;;;2.30;;
5742;SDS011;2896;53.500;10.020;2023-06-26T14:49:38;1.87;;;1.70;;